Time;durP1;ratioP1;P1;durP2;ratioP2;P2;SDS_P1;SDS_P2;PMS_P1;PMS_P2;Temp;Humidity;BMP_temperature;BMP_pressure;BME280_temperature;BME280_humidity;BME280_pressure;Samples;Min_cycle;Max_cycle;Signal;HPM_P1;HPM_P2
2021/01/20 00:00:19;;;;;;;14.18;7.70;;;7.60;99.90;;;;;;5083558;28;20415;-70
2021/01/20 00:02:45;;;;;;;14.98;8.65;;;7.60;99.90;;;;;;5089549;28;20031;-71
2021/01/20 00:05:12;;;;;;;19.08;8.05;;;7.60;99.90;;;;;;5090362;28;20032;-69
2021/01/20 00:07:37;;;;;;;18.30;8.48;;;7.50;99.90;;;;;;5092165;28;20032;-69
2021/01/20 00:10:04;;;;;;;20.73;9.13;;;7.50;99.90;;;;;;5084256;28;20028;-68
2021/01/20 00:12:31;;;;;;;16.25;8.38;;;7.50;99.90;;;;;;5084947;28;20044;-68
2021/01/20 00:14:56;;;;;;;15.70;8.27;;;7.50;99.90;;;;;;5069542;28;20032;-70
2021/01/20 00:17:22;;;;;;;10.88;7.93;;;7.50;99.90;;;;;;5071327;28;20027;-69
2021/01/20 00:19:48;;;;;;;15.35;8.32;;;7.50;99.90;;;;;;5073552;28;20020;-71
2021/01/20 00:22:14;;;;;;;12.50;7.22;;;7.50;99.90;;;;;;5051022;28;20017;-69
2021/01/20 00:24:40;;;;;;;15.82;7.57;;;7.50;99.90;;;;;;5046814;28;20078;-68
2021/01/20 00:27:07;;;;;;;16.90;8.13;;;7.50;99.90;;;;;;5077035;28;20168;-69
2021/01/20 00:29:33;;;;;;;12.25;7.25;;;7.50;99.90;;;;;;5064380;28;20032;-69
2021/01/20 00:31:59;;;;;;;17.80;8.07;;;7.50;99.90;;;;;;5068007;28;20025;-70
2021/01/20 00:34:26;;;;;;;12.73;7.88;;;7.50;99.90;;;;;;5068926;28;20106;-69
2021/01/20 00:36:51;;;;;;;15.55;7.95;;;7.50;99.90;;;;;;5066663;28;20021;-70
2021/01/20 00:39:17;;;;;;;20.15;7.93;;;7.50;99.90;;;;;;5057840;28;20486;-70
2021/01/20 00:41:44;;;;;;;13.65;7.63;;;7.50;99.90;;;;;;5068627;28;20031;-71
2021/01/20 00:44:14;;;;;;;16.33;8.55;;;7.50;99.90;;;;;;5068713;28;20032;-71
2021/01/20 00:46:40;;;;;;;17.98;7.75;;;7.50;99.90;;;;;;5059719;28;20477;-69
2021/01/20 00:49:06;;;;;;;13.82;7.95;;;7.50;99.90;;;;;;5072141;28;20036;-70
2021/01/20 00:51:31;;;;;;;16.52;7.63;;;7.50;99.90;;;;;;5070195;28;20182;-67
2021/01/20 00:54:00;;;;;;;18.08;7.70;;;7.50;99.90;;;;;;5076995;28;20028;-71
2021/01/20 00:56:25;;;;;;;13.35;8.07;;;7.50;99.90;;;;;;5055069;28;20059;-70
2021/01/20 00:58:51;;;;;;;17.08;8.10;;;7.50;99.90;;;;;;5044661;28;20135;-69
2021/01/20 01:01:16;;;;;;;15.48;7.90;;;7.50;99.90;;;;;;5072024;28;20068;-69
2021/01/20 01:03:42;;;;;;;15.15;8.13;;;7.50;99.90;;;;;;5069417;28;20108;-70
2021/01/20 01:06:09;;;;;;;14.70;8.30;;;7.50;99.90;;;;;;5038519;28;20017;-68
2021/01/20 01:08:37;;;;;;;17.85;9.10;;;7.50;99.90;;;;;;5067905;28;20036;-70
2021/01/20 01:11:03;;;;;;;12.60;7.70;;;7.50;99.90;;;;;;5042704;28;20044;-69
2021/01/20 01:13:29;;;;;;;21.20;9.68;;;7.60;99.90;;;;;;5060234;28;20032;-70
2021/01/20 01:15:56;;;;;;;16.75;8.30;;;7.60;99.90;;;;;;5084016;28;20024;-72
2021/01/20 01:18:22;;;;;;;16.35;8.85;;;7.60;99.90;;;;;;5089669;28;20028;-69
2021/01/20 01:20:47;;;;;;;14.60;8.73;;;7.60;99.90;;;;;;5086284;28;20465;-69
2021/01/20 01:23:13;;;;;;;16.45;8.98;;;7.60;99.90;;;;;;5081795;28;20024;-69
2021/01/20 01:25:38;;;;;;;19.88;9.07;;;7.60;99.90;;;;;;5086330;28;20099;-70
2021/01/20 01:28:14;;;;;;;17.30;9.35;;;7.60;99.90;;;;;;5088401;28;20035;-70
2021/01/20 01:30:40;;;;;;;18.80;10.50;;;7.60;99.90;;;;;;5069987;28;20063;-69
2021/01/20 01:33:07;;;;;;;16.55;9.70;;;7.60;99.90;;;;;;5084014;28;20422;-69
2021/01/20 01:35:33;;;;;;;17.08;9.65;;;7.50;99.90;;;;;;5087806;28;20107;-69
2021/01/20 01:37:59;;;;;;;19.90;10.73;;;7.50;99.90;;;;;;5068938;28;20035;-68
2021/01/20 01:40:25;;;;;;;20.85;10.95;;;7.60;99.90;;;;;;5086274;28;20377;-70
2021/01/20 01:42:52;;;;;;;23.02;11.00;;;7.60;99.90;;;;;;5086959;28;20085;-71
2021/01/20 01:45:18;;;;;;;16.98;10.45;;;7.60;99.90;;;;;;5087185;28;20043;-70
2021/01/20 01:47:45;;;;;;;17.35;10.40;;;7.50;99.90;;;;;;5073180;28;20021;-68
2021/01/20 01:50:13;;;;;;;19.77;10.32;;;7.60;99.90;;;;;;5087870;28;20067;-68
2021/01/20 01:52:41;;;;;;;21.20;10.85;;;7.60;99.90;;;;;;5087390;28;20017;-70
2021/01/20 01:55:11;;;;;;;24.80;11.48;;;7.60;99.90;;;;;;5083732;28;20752;-69
2021/01/20 01:57:40;;;;;;;28.40;11.18;;;7.60;99.90;;;;;;5069413;28;20426;-70
2021/01/20 02:00:10;;;;;;;19.45;10.45;;;7.70;99.90;;;;;;5081921;28;20431;-70
2021/01/20 02:02:37;;;;;;;17.65;10.65;;;7.60;99.90;;;;;;5070553;28;20020;-70
2021/01/20 02:05:04;;;;;;;21.52;10.20;;;7.60;99.90;;;;;;5087861;28;20030;-68
2021/01/20 02:07:31;;;;;;;32.33;11.52;;;7.60;99.90;;;;;;5087794;28;20032;-69
2021/01/20 02:09:59;;;;;;;19.20;10.77;;;7.60;99.90;;;;;;5085877;28;20492;-69
2021/01/20 02:12:55;;;;;;;20.05;11.65;;;7.60;99.90;;;;;;5087717;28;20036;-68
2021/01/20 02:15:56;;;;;;;18.85;11.27;;;7.60;99.90;;;;;;5081926;28;20599;-70
2021/01/20 02:18:26;;;;;;;21.60;11.13;;;7.60;99.90;;;;;;5080966;28;20103;-70
2021/01/20 02:21:11;;;;;;;20.48;11.15;;;7.60;99.90;;;;;;5080653;28;20043;-71
2021/01/20 02:23:42;;;;;;;17.25;10.82;;;7.60;99.90;;;;;;5087004;28;20078;-70
2021/01/20 02:26:17;;;;;;;19.70;10.88;;;7.70;99.90;;;;;;5076872;28;20040;-71
2021/01/20 02:29:09;;;;;;;24.40;12.05;;;7.70;99.90;;;;;;5073646;28;20031;-69
2021/01/20 02:31:41;;;;;;;21.70;10.48;;;7.70;99.90;;;;;;5080481;28;20040;-67
2021/01/20 02:34:11;;;;;;;17.48;10.48;;;7.60;99.90;;;;;;5076237;28;20033;-70
2021/01/20 02:36:40;;;;;;;18.98;10.57;;;7.60;99.90;;;;;;5045718;28;20432;-70
2021/01/20 02:39:07;;;;;;;18.65;10.93;;;7.60;99.90;;;;;;5070520;28;20035;-70
2021/01/20 02:41:32;;;;;;;25.23;10.45;;;7.60;99.90;;;;;;5070071;28;20559;-71
2021/01/20 02:44:03;;;;;;;21.45;10.25;;;7.60;99.90;;;;;;5062752;28;20024;-71
2021/01/20 02:46:29;;;;;;;19.85;10.65;;;7.70;99.90;;;;;;5084220;28;20533;-68
2021/01/20 02:48:56;;;;;;;18.77;9.95;;;7.70;99.90;;;;;;5076108;28;20465;-67
2021/01/20 02:51:36;;;;;;;19.20;10.00;;;7.70;99.90;;;;;;5072024;28;20035;-68
2021/01/20 02:54:03;;;;;;;18.55;10.15;;;7.80;99.90;;;;;;5060475;28;20027;-68
2021/01/20 02:56:30;;;;;;;18.70;10.93;;;7.80;99.90;;;;;;5087774;28;20028;-69
2021/01/20 02:59:01;;;;;;;18.50;9.25;;;7.80;99.90;;;;;;5085796;28;20123;-68
2021/01/20 03:01:29;;;;;;;15.15;9.52;;;7.80;99.90;;;;;;5062730;28;20557;-70
2021/01/20 03:03:58;;;;;;;19.58;9.88;;;7.90;99.90;;;;;;5088483;28;20039;-70
2021/01/20 03:06:24;;;;;;;21.90;9.10;;;7.90;99.90;;;;;;5086252;28;20028;-69
2021/01/20 03:08:51;;;;;;;15.00;9.18;;;7.90;99.90;;;;;;5090476;28;20081;-69
2021/01/20 03:11:17;;;;;;;15.38;9.32;;;7.90;99.90;;;;;;5084776;28;20036;-69
2021/01/20 03:13:45;;;;;;;15.50;9.50;;;7.90;99.90;;;;;;5088145;28;20438;-70
2021/01/20 03:16:11;;;;;;;16.98;7.90;;;7.90;99.90;;;;;;5086452;28;20100;-68
2021/01/20 03:18:37;;;;;;;13.68;8.43;;;8.00;99.90;;;;;;5085737;28;20465;-69
2021/01/20 03:21:03;;;;;;;13.43;8.55;;;8.00;99.90;;;;;;5086662;28;20405;-70
2021/01/20 03:23:29;;;;;;;16.92;8.65;;;8.00;99.90;;;;;;5088459;28;20481;-70
2021/01/20 03:25:56;;;;;;;15.20;7.57;;;8.10;99.90;;;;;;5090088;28;20032;-68
2021/01/20 03:28:23;;;;;;;16.50;7.75;;;8.10;99.90;;;;;;5083616;28;20028;-69
2021/01/20 03:30:49;;;;;;;12.73;7.93;;;8.00;99.90;;;;;;5089568;28;20437;-68
2021/01/20 03:33:15;;;;;;;16.38;8.55;;;8.00;99.90;;;;;;5085691;28;20035;-67
2021/01/20 03:35:40;;;;;;;15.07;7.78;;;8.00;99.90;;;;;;5088304;28;20032;-71
2021/01/20 03:38:06;;;;;;;13.05;7.38;;;8.00;99.90;;;;;;5079425;28;20132;-69
2021/01/20 03:40:31;;;;;;;15.93;7.20;;;8.00;99.90;;;;;;5051421;28;20037;-68
2021/01/20 03:42:57;;;;;;;12.48;7.18;;;8.00;99.90;;;;;;5087874;28;20484;-67
2021/01/20 03:45:22;;;;;;;12.00;6.97;;;8.00;99.90;;;;;;5090461;28;20110;-68
2021/01/20 03:47:48;;;;;;;13.20;7.05;;;8.00;99.90;;;;;;5089985;28;20643;-69
2021/01/20 03:50:13;;;;;;;11.32;6.72;;;8.00;99.90;;;;;;5079186;28;20488;-69
2021/01/20 03:52:39;;;;;;;12.23;7.30;;;8.00;99.90;;;;;;5076037;28;20032;-69
2021/01/20 03:55:05;;;;;;;11.40;6.95;;;8.00;99.90;;;;;;5081442;28;20357;-68
2021/01/20 03:57:30;;;;;;;13.68;7.65;;;8.00;99.90;;;;;;5051036;28;20025;-67
2021/01/20 03:59:56;;;;;;;18.40;7.85;;;8.00;99.90;;;;;;5088844;28;20536;-68
2021/01/20 04:02:21;;;;;;;10.32;6.95;;;8.00;99.90;;;;;;5089792;28;20043;-68
2021/01/20 04:04:47;;;;;;;11.85;6.70;;;8.00;99.90;;;;;;5069572;28;20020;-68
2021/01/20 04:07:12;;;;;;;11.93;6.63;;;8.00;99.90;;;;;;5044433;28;20550;-68
2021/01/20 04:09:38;;;;;;;10.85;6.88;;;8.00;99.90;;;;;;5068737;28;20048;-67
2021/01/20 04:12:05;;;;;;;12.73;6.32;;;8.00;99.90;;;;;;5073136;28;20112;-69
2021/01/20 04:14:30;;;;;;;15.10;7.63;;;8.00;99.90;;;;;;5078793;28;20074;-68
2021/01/20 04:16:56;;;;;;;11.80;7.18;;;8.10;99.90;;;;;;5080099;28;20020;-68
2021/01/20 04:19:21;;;;;;;12.50;6.57;;;8.10;99.90;;;;;;5082941;28;20020;-68
2021/01/20 04:21:49;;;;;;;14.82;6.93;;;8.10;99.90;;;;;;5060238;28;20248;-67
2021/01/20 04:24:17;;;;;;;13.07;6.93;;;8.20;99.90;;;;;;5066506;28;20024;-69
2021/01/20 04:26:44;;;;;;;12.85;7.03;;;8.10;99.90;;;;;;5024249;28;20278;-69
2021/01/20 04:29:11;;;;;;;9.10;5.80;;;8.20;99.90;;;;;;5081857;28;20588;-66
2021/01/20 04:31:37;;;;;;;14.93;7.00;;;8.20;99.90;;;;;;5086470;28;20469;-69
2021/01/20 04:34:03;;;;;;;13.13;6.15;;;8.30;99.90;;;;;;5079707;28;20061;-67
2021/01/20 04:36:29;;;;;;;11.98;6.63;;;8.20;99.90;;;;;;5063288;28;20123;-69
2021/01/20 04:38:54;;;;;;;9.88;5.75;;;8.30;99.90;;;;;;5077007;28;20035;-67
2021/01/20 04:41:20;;;;;;;14.15;7.10;;;8.30;99.90;;;;;;5088284;28;20051;-69
2021/01/20 04:43:45;;;;;;;11.40;6.85;;;8.30;99.90;;;;;;5082542;28;20013;-69
2021/01/20 04:46:12;;;;;;;10.60;6.55;;;8.30;99.90;;;;;;5082999;28;20043;-68
2021/01/20 04:48:38;;;;;;;11.30;6.38;;;8.40;99.90;;;;;;5086475;28;20047;-69
2021/01/20 04:51:07;;;;;;;14.68;6.90;;;8.40;99.90;;;;;;5058202;28;20420;-69
2021/01/20 04:53:39;;;;;;;13.35;6.85;;;8.40;99.90;;;;;;5077502;28;20031;-69
2021/01/20 04:56:11;;;;;;;10.48;6.32;;;8.40;99.90;;;;;;5067719;28;20393;-68
2021/01/20 04:58:37;;;;;;;12.52;6.40;;;8.50;99.90;;;;;;5076413;28;20024;-69
2021/01/20 05:01:03;;;;;;;13.63;6.18;;;8.50;99.90;;;;;;5052746;28;20027;-67
2021/01/20 05:03:29;;;;;;;10.88;5.80;;;8.50;99.90;;;;;;5073613;28;20293;-71
2021/01/20 05:05:55;;;;;;;10.30;6.03;;;8.50;99.90;;;;;;5079047;28;20032;-68
2021/01/20 05:08:22;;;;;;;8.68;5.72;;;8.50;99.90;;;;;;5088237;28;20059;-71
2021/01/20 05:10:48;;;;;;;9.68;5.70;;;8.50;99.90;;;;;;5088546;28;20532;-72
2021/01/20 05:13:28;;;;;;;13.70;5.22;;;8.50;99.90;;;;;;5065023;28;20052;-68
2021/01/20 05:15:55;;;;;;;9.00;5.60;;;8.50;99.90;;;;;;5079886;28;20100;-67
2021/01/20 05:18:20;;;;;;;11.93;5.13;;;8.60;99.90;;;;;;5086194;28;20028;-67
2021/01/20 05:20:46;;;;;;;9.70;5.20;;;8.60;99.90;;;;;;5088770;28;20031;-71
2021/01/20 05:23:12;;;;;;;11.10;5.95;;;8.60;99.90;;;;;;5088624;28;20045;-67
2021/01/20 05:25:44;;;;;;;7.22;4.82;;;8.60;99.90;;;;;;5069939;28;20381;-70
2021/01/20 05:28:27;;;;;;;9.95;5.25;;;8.60;99.90;;;;;;5088715;28;20016;-72
2021/01/20 05:31:00;;;;;;;7.60;4.80;;;8.60;99.90;;;;;;5085840;28;20032;-69
2021/01/20 05:33:38;;;;;;;11.82;5.88;;;8.60;99.90;;;;;;5092375;28;20031;-68
2021/01/20 05:36:08;;;;;;;10.07;5.18;;;8.60;99.90;;;;;;5097552;28;20016;-71
2021/01/20 05:38:46;;;;;;;9.80;5.07;;;8.60;99.90;;;;;;5096529;28;20040;-69
2021/01/20 05:41:15;;;;;;;7.85;4.78;;;8.60;99.90;;;;;;5094244;28;20042;-69
2021/01/20 05:43:40;;;;;;;8.00;4.70;;;8.60;99.90;;;;;;5088271;28;20522;-68
2021/01/20 05:46:06;;;;;;;8.25;4.82;;;8.60;99.90;;;;;;5089708;28;20139;-70
2021/01/20 05:48:31;;;;;;;6.80;4.63;;;8.60;99.90;;;;;;5088427;28;20032;-68
2021/01/20 05:50:58;;;;;;;6.68;4.72;;;8.60;99.90;;;;;;5085130;28;20036;-69
2021/01/20 05:53:24;;;;;;;6.65;4.43;;;8.70;99.90;;;;;;5088238;28;20103;-69
2021/01/20 05:56:03;;;;;;;7.40;4.82;;;8.70;99.90;;;;;;5083591;28;20480;-69
2021/01/20 05:58:40;;;;;;;9.55;4.57;;;8.70;99.90;;;;;;5086770;28;20030;-68
2021/01/20 06:01:10;;;;;;;8.82;4.40;;;8.60;99.90;;;;;;5083090;28;20217;-67
2021/01/20 06:03:36;;;;;;;7.90;4.43;;;8.60;99.90;;;;;;5086294;28;20107;-69
2021/01/20 06:06:04;;;;;;;7.10;4.25;;;8.60;99.90;;;;;;5057969;28;20028;-68
2021/01/20 06:08:34;;;;;;;7.85;4.45;;;8.60;99.90;;;;;;5066884;28;20103;-68
2021/01/20 06:11:01;;;;;;;8.70;4.07;;;8.60;99.90;;;;;;5086846;28;20040;-69
2021/01/20 06:13:28;;;;;;;7.45;4.95;;;8.60;99.90;;;;;;5056368;28;20049;-67
2021/01/20 06:16:00;;;;;;;6.00;4.00;;;8.70;99.90;;;;;;5066965;28;20074;-69
2021/01/20 06:18:32;;;;;;;11.13;4.30;;;8.70;99.90;;;;;;5064632;28;20027;-70
2021/01/20 06:20:58;;;;;;;5.93;4.47;;;8.70;99.90;;;;;;5065299;28;20135;-69
2021/01/20 06:23:25;;;;;;;6.88;3.65;;;8.70;99.90;;;;;;5066618;28;20017;-69
2021/01/20 06:26:01;;;;;;;6.28;3.80;;;8.70;99.90;;;;;;5064319;28;20499;-69
2021/01/20 06:28:27;;;;;;;6.85;4.20;;;8.70;99.90;;;;;;5064926;28;20511;-68
2021/01/20 06:30:55;;;;;;;7.38;3.53;;;8.70;99.90;;;;;;5032701;28;20048;-69
2021/01/20 06:33:21;;;;;;;8.55;4.18;;;8.70;99.90;;;;;;5070058;28;20021;-68
2021/01/20 06:35:50;;;;;;;9.32;3.92;;;8.60;99.90;;;;;;5070853;28;20028;-70
2021/01/20 06:38:29;;;;;;;5.90;3.70;;;8.70;99.90;;;;;;5071529;28;20074;-68
2021/01/20 06:41:00;;;;;;;9.02;4.15;;;8.60;99.90;;;;;;5077466;28;20051;-70
2021/01/20 06:43:40;;;;;;;7.68;4.15;;;8.70;99.90;;;;;;5069904;28;20048;-70
2021/01/20 06:46:25;;;;;;;7.32;4.03;;;8.70;99.90;;;;;;5070413;28;20031;-69
2021/01/20 06:48:53;;;;;;;6.45;3.65;;;8.70;99.90;;;;;;5070837;28;20205;-69
2021/01/20 06:51:32;;;;;;;5.88;4.15;;;8.70;99.90;;;;;;5067332;28;20720;-69
2021/01/20 06:54:10;;;;;;;5.70;3.80;;;8.70;99.90;;;;;;5061856;28;20048;-68
2021/01/20 06:56:40;;;;;;;4.38;3.55;;;8.70;99.90;;;;;;5065692;28;20029;-68
2021/01/20 06:59:24;;;;;;;6.32;3.40;;;8.70;99.90;;;;;;5051855;28;20028;-70
2021/01/20 07:02:05;;;;;;;5.25;3.58;;;8.60;99.90;;;;;;5068763;28;20382;-70
2021/01/20 07:04:40;;;;;;;7.53;4.13;;;8.70;99.90;;;;;;5071245;28;20052;-70
2021/01/20 07:07:07;;;;;;;5.82;4.07;;;8.60;99.90;;;;;;5070495;28;20035;-69
2021/01/20 07:10:00;;;;;;;4.95;3.78;;;8.60;99.90;;;;;;5069809;28;20145;-71
2021/01/20 07:12:26;;;;;;;10.80;4.80;;;8.60;99.90;;;;;;5058244;28;20044;-69
2021/01/20 07:14:52;;;;;;;8.93;4.03;;;8.70;99.90;;;;;;5070204;28;20024;-67
2021/01/20 07:17:19;;;;;;;7.88;4.13;;;8.60;99.90;;;;;;5070917;28;20083;-70
2021/01/20 07:19:46;;;;;;;8.88;3.72;;;8.60;99.90;;;;;;5071308;28;20024;-70
2021/01/20 07:22:12;;;;;;;4.85;3.88;;;8.60;99.90;;;;;;5064980;28;20097;-70
2021/01/20 07:24:39;;;;;;;5.35;3.83;;;8.60;99.90;;;;;;5062603;28;20535;-70
2021/01/20 07:27:10;;;;;;;8.20;4.22;;;8.60;99.90;;;;;;5054766;28;20111;-70
2021/01/20 07:29:42;;;;;;;6.50;4.07;;;8.60;99.90;;;;;;5053052;28;20508;-70
2021/01/20 07:32:08;;;;;;;9.83;4.23;;;8.60;99.90;;;;;;5067138;28;20071;-68
2021/01/20 07:34:52;;;;;;;6.60;4.10;;;8.60;99.90;;;;;;5056314;28;20273;-68
2021/01/20 07:37:17;;;;;;;6.55;3.67;;;8.50;99.90;;;;;;5070616;28;20104;-69
2021/01/20 07:39:45;;;;;;;7.13;3.63;;;8.50;99.90;;;;;;5069721;28;20108;-71
2021/01/20 07:42:30;;;;;;;5.20;3.65;;;8.50;99.90;;;;;;5059905;28;20075;-71
2021/01/20 07:44:57;;;;;;;8.25;3.60;;;8.50;99.90;;;;;;5066209;28;20032;-70
2021/01/20 07:47:23;;;;;;;10.88;3.50;;;8.50;99.90;;;;;;5070206;28;20042;-69
2021/01/20 07:49:53;;;;;;;5.97;4.18;;;8.50;99.90;;;;;;5068107;28;20040;-69
2021/01/20 07:52:19;;;;;;;6.88;4.43;;;8.50;99.90;;;;;;5051653;28;20444;-69
2021/01/20 07:54:45;;;;;;;6.25;4.18;;;8.50;99.90;;;;;;5067672;28;21315;-72
2021/01/20 07:57:18;;;;;;;7.57;3.95;;;8.50;99.90;;;;;;5057433;28;20017;-70
2021/01/20 07:59:44;;;;;;;;;;;8.50;99.90;;;;;;5062770;28;20087;-70
2021/01/20 08:02:17;;;;;;;7.72;3.58;;;8.40;99.90;;;;;;5052566;28;19904;-68
2021/01/20 08:04:42;;;;;;;8.60;3.88;;;8.50;99.90;;;;;;5058147;28;20025;-68
2021/01/20 08:07:10;;;;;;;5.97;3.42;;;8.40;99.90;;;;;;5049703;28;20074;-69
2021/01/20 08:09:44;;;;;;;8.73;3.35;;;8.50;99.90;;;;;;5049606;28;20330;-68
2021/01/20 08:12:26;;;;;;;6.80;3.60;;;8.50;99.90;;;;;;5067401;28;20107;-71
2021/01/20 08:14:52;;;;;;;4.82;3.05;;;8.50;99.90;;;;;;5078791;28;20039;-69
2021/01/20 08:17:22;;;;;;;6.32;3.20;;;8.50;99.90;;;;;;5076831;28;20031;-71
2021/01/20 08:19:49;;;;;;;5.93;3.15;;;8.50;99.90;;;;;;5076554;28;20116;-71
2021/01/20 08:22:16;;;;;;;4.63;2.42;;;8.50;99.90;;;;;;5087448;28;20115;-70
2021/01/20 08:24:50;;;;;;;8.98;3.00;;;8.60;99.90;;;;;;5071152;28;20048;-69
2021/01/20 08:27:31;;;;;;;6.00;3.00;;;8.60;99.90;;;;;;5074586;28;20091;-70
2021/01/20 08:30:00;;;;;;;5.35;2.78;;;8.60;99.90;;;;;;5085352;28;20033;-69
2021/01/20 08:32:26;;;;;;;7.18;2.83;;;8.60;99.90;;;;;;5083066;28;20075;-71
2021/01/20 08:34:54;;;;;;;4.43;2.65;;;8.70;99.90;;;;;;5074384;28;20047;-70
2021/01/20 08:37:34;;;;;;;5.45;2.60;;;8.70;99.90;;;;;;5058110;28;20032;-71
2021/01/20 08:40:03;;;;;;;3.67;2.45;;;8.70;99.90;;;;;;5072788;28;20027;-70
2021/01/20 08:42:39;;;;;;;3.92;3.10;;;8.80;99.90;;;;;;5087126;28;20036;-69
2021/01/20 08:45:29;;;;;;;3.88;2.60;;;8.70;99.90;;;;;;5081417;28;20493;-70
2021/01/20 08:48:05;;;;;;;5.95;2.42;;;8.70;99.90;;;;;;5079935;28;20119;-70
2021/01/20 08:50:31;;;;;;;3.65;2.40;;;8.80;99.90;;;;;;5081504;28;20036;-68
2021/01/20 08:53:01;;;;;;;4.95;2.63;;;8.70;99.90;;;;;;5079315;28;20102;-69
2021/01/20 08:55:35;;;;;;;5.25;2.15;;;8.80;99.90;;;;;;5088632;28;20028;-68
2021/01/20 08:58:26;;;;;;;5.43;2.47;;;8.80;99.90;;;;;;5054688;28;20017;-71
2021/01/20 09:01:10;;;;;;;3.10;2.50;;;8.80;99.90;;;;;;5102093;28;20024;-68
2021/01/20 09:03:38;;;;;;;3.50;2.13;;;8.90;99.90;;;;;;5089126;28;20479;-67
2021/01/20 09:06:05;;;;;;;4.22;2.15;;;8.90;99.90;;;;;;5089826;28;20020;-70
2021/01/20 09:08:35;;;;;;;5.18;2.50;;;8.90;99.90;;;;;;5088908;28;20027;-70
2021/01/20 09:11:01;;;;;;;5.10;2.42;;;8.90;99.90;;;;;;5089276;28;20113;-70
2021/01/20 09:13:27;;;;;;;3.72;2.30;;;8.90;99.90;;;;;;5099240;28;20093;-70
2021/01/20 09:15:55;;;;;;;2.95;1.95;;;8.90;99.90;;;;;;5072015;28;20430;-69
2021/01/20 09:18:22;;;;;;;5.30;2.45;;;9.00;99.90;;;;;;5087918;28;20024;-70
2021/01/20 09:20:48;;;;;;;2.78;1.90;;;9.00;99.90;;;;;;5048596;28;20422;-71
2021/01/20 09:23:14;;;;;;;4.38;2.05;;;9.00;99.90;;;;;;5088692;28;20016;-70
2021/01/20 09:25:40;;;;;;;4.05;2.13;;;9.00;99.90;;;;;;5082487;28;20027;-70
2021/01/20 09:28:06;;;;;;;4.50;2.42;;;9.10;99.90;;;;;;5080055;28;20074;-69
2021/01/20 09:30:32;;;;;;;2.78;1.77;;;9.10;99.90;;;;;;5088614;28;20035;-68
2021/01/20 09:32:58;;;;;;;4.30;2.03;;;9.20;99.90;;;;;;5074174;28;20028;-71
2021/01/20 09:35:27;;;;;;;3.65;1.95;;;9.30;99.90;;;;;;5085352;28;20041;-71
2021/01/20 09:37:54;;;;;;;4.30;2.05;;;9.30;99.90;;;;;;5070897;28;20018;-68
2021/01/20 09:40:24;;;;;;;5.10;2.20;;;9.30;99.90;;;;;;5045291;28;20020;-70
2021/01/20 09:42:51;;;;;;;5.80;1.85;;;9.30;99.90;;;;;;5088560;28;20440;-69
2021/01/20 09:45:20;;;;;;;3.90;1.83;;;9.30;99.90;;;;;;5088690;28;20028;-69
2021/01/20 09:47:46;;;;;;;7.35;2.22;;;9.30;99.90;;;;;;5074019;28;20012;-68
2021/01/20 09:50:16;;;;;;;3.83;2.42;;;9.40;99.90;;;;;;5087824;28;20028;-70
2021/01/20 09:52:47;;;;;;;1.70;1.60;;;9.30;99.90;;;;;;5088232;28;20012;-71
2021/01/20 09:55:15;;;;;;;4.90;1.88;;;9.30;99.90;;;;;;5073769;28;20139;-70
2021/01/20 09:57:42;;;;;;;2.30;2.08;;;9.30;99.90;;;;;;5082265;28;20028;-68
2021/01/20 10:00:11;;;;;;;4.13;2.20;;;9.30;99.90;;;;;;5073419;28;20046;-69
2021/01/20 10:02:38;;;;;;;4.88;2.08;;;9.20;99.90;;;;;;5074383;28;20028;-68
2021/01/20 10:05:08;;;;;;;3.65;2.08;;;9.20;99.90;;;;;;5091370;28;20103;-68
2021/01/20 10:07:35;;;;;;;5.63;2.50;;;9.20;99.90;;;;;;5092124;28;20024;-69
2021/01/20 10:10:01;;;;;;;3.70;1.75;;;9.20;99.90;;;;;;5092663;28;20038;-69
2021/01/20 10:12:27;;;;;;;5.18;2.30;;;9.20;99.90;;;;;;5059490;28;20044;-67
2021/01/20 10:14:52;;;;;;;3.25;1.95;;;9.20;99.90;;;;;;5092425;28;20072;-69
2021/01/20 10:17:18;;;;;;;2.13;1.67;;;9.20;99.90;;;;;;5074406;28;20025;-70
2021/01/20 10:19:44;;;;;;;3.78;2.50;;;9.20;99.90;;;;;;5079481;28;20107;-72
2021/01/20 10:22:13;;;;;;;4.20;1.95;;;9.10;99.90;;;;;;5101513;28;20094;-71
2021/01/20 10:24:51;;;;;;;2.90;2.05;;;9.10;99.90;;;;;;5099927;28;20448;-71
2021/01/20 10:27:18;;;;;;;5.25;1.88;;;9.20;99.90;;;;;;5092432;28;20032;-70
2021/01/20 10:29:44;;;;;;;2.75;1.92;;;9.20;99.90;;;;;;5065938;28;20039;-70
2021/01/20 10:32:10;;;;;;;9.70;1.60;;;9.20;99.90;;;;;;5092446;28;20051;-69
2021/01/20 10:34:37;;;;;;;2.72;1.80;;;9.20;99.90;;;;;;5071927;28;20473;-70
2021/01/20 10:37:04;;;;;;;3.50;1.92;;;9.20;99.90;;;;;;5089915;28;20039;-70
2021/01/20 10:39:31;;;;;;;4.30;2.15;;;9.20;99.90;;;;;;5092132;28;20115;-68
2021/01/20 10:41:57;;;;;;;4.07;1.95;;;9.20;99.90;;;;;;5076500;28;20549;-69
2021/01/20 10:44:22;;;;;;;1.88;1.70;;;9.20;99.90;;;;;;5090704;28;20089;-70
2021/01/20 10:46:48;;;;;;;7.20;2.67;;;9.20;99.90;;;;;;5084230;28;20112;-70
2021/01/20 10:49:14;;;;;;;3.15;2.13;;;9.30;99.90;;;;;;5073724;28;20031;-68
2021/01/20 10:51:39;;;;;;;2.90;2.08;;;9.30;99.90;;;;;;5091646;28;20481;-68
2021/01/20 10:54:06;;;;;;;4.82;2.20;;;9.40;99.90;;;;;;5078760;28;20008;-70
2021/01/20 10:56:32;;;;;;;2.92;1.95;;;9.50;99.90;;;;;;5073017;28;20043;-71
2021/01/20 10:58:58;;;;;;;2.50;1.92;;;9.50;99.90;;;;;;5086003;28;20599;-69
2021/01/20 11:01:24;;;;;;;2.83;2.08;;;9.50;99.90;;;;;;5076030;28;20488;-72
2021/01/20 11:03:51;;;;;;;3.63;1.92;;;9.60;99.90;;;;;;5042797;28;20036;-69
2021/01/20 11:06:18;;;;;;;7.20;2.05;;;9.50;99.90;;;;;;5091017;28;20028;-70
2021/01/20 11:08:45;;;;;;;2.67;1.85;;;9.60;99.90;;;;;;5072344;28;20060;-69
2021/01/20 11:11:12;;;;;;;4.05;2.35;;;9.60;99.90;;;;;;5080591;28;20024;-73
2021/01/20 11:13:39;;;;;;;7.05;2.30;;;9.70;99.90;;;;;;5069396;28;20559;-69
2021/01/20 11:16:05;;;;;;;2.72;2.05;;;9.60;99.90;;;;;;5078499;28;20519;-71
2021/01/20 11:18:34;;;;;;;2.85;1.67;;;9.60;99.90;;;;;;5086388;28;20095;-71
2021/01/20 11:21:00;;;;;;;3.05;1.65;;;9.50;99.90;;;;;;5081391;28;20056;-70
2021/01/20 11:23:35;;;;;;;2.45;1.83;;;9.60;99.90;;;;;;5065449;28;20028;-70
2021/01/20 11:26:07;;;;;;;2.63;1.88;;;9.50;99.90;;;;;;5089642;28;20489;-69
2021/01/20 11:28:34;;;;;;;2.72;1.67;;;9.50;99.90;;;;;;5056873;28;20665;-70
2021/01/20 11:30:59;;;;;;;4.50;2.08;;;9.50;99.90;;;;;;5090732;28;20108;-69
2021/01/20 11:33:25;;;;;;;5.13;1.80;;;9.40;99.90;;;;;;5084937;28;20052;-71
2021/01/20 11:35:50;;;;;;;4.45;2.00;;;9.40;99.90;;;;;;5090413;28;20081;-69
2021/01/20 11:38:16;;;;;;;8.60;2.70;;;9.40;99.90;;;;;;5086604;28;20021;-71
2021/01/20 11:40:41;;;;;;;3.97;1.98;;;9.40;99.90;;;;;;5080160;28;20434;-70
2021/01/20 11:43:07;;;;;;;3.53;1.80;;;9.50;99.90;;;;;;5090139;28;20075;-70
2021/01/20 11:45:35;;;;;;;5.28;2.08;;;9.40;99.90;;;;;;5090978;28;20035;-69
2021/01/20 11:48:02;;;;;;;4.25;1.90;;;9.40;99.90;;;;;;5089735;28;20016;-71
2021/01/20 11:50:28;;;;;;;6.30;2.10;;;9.40;99.90;;;;;;5066545;28;20084;-70
2021/01/20 11:52:54;;;;;;;4.57;1.98;;;9.40;99.90;;;;;;5068603;28;20051;-69
2021/01/20 11:55:21;;;;;;;4.30;2.08;;;9.40;99.90;;;;;;5089193;28;20027;-70
2021/01/20 11:57:47;;;;;;;6.32;2.25;;;9.50;99.90;;;;;;5071784;28;20020;-69
2021/01/20 12:00:13;;;;;;;4.15;2.03;;;9.50;99.90;;;;;;5071621;28;20036;-72
2021/01/20 12:02:40;;;;;;;4.63;1.60;;;9.50;99.90;;;;;;5090274;28;20087;-67
2021/01/20 12:05:11;;;;;;;3.65;1.90;;;9.50;99.90;;;;;;5089411;28;20542;-70
2021/01/20 12:07:39;;;;;;;4.30;1.65;;;9.50;99.90;;;;;;5082611;28;20104;-71
2021/01/20 12:10:06;;;;;;;9.20;2.38;;;9.50;99.90;;;;;;5069581;28;20036;-71
2021/01/20 12:12:32;;;;;;;3.25;1.92;;;9.50;99.90;;;;;;5089891;28;20235;-68
2021/01/20 12:14:58;;;;;;;3.80;1.70;;;9.50;99.90;;;;;;5088710;28;20074;-70
2021/01/20 12:17:24;;;;;;;3.72;2.00;;;9.50;99.90;;;;;;5076144;28;20086;-71
2021/01/20 12:19:49;;;;;;;4.80;1.85;;;9.60;99.90;;;;;;5076696;28;20024;-71
2021/01/20 12:22:15;;;;;;;4.10;1.83;;;9.60;99.90;;;;;;5074746;28;20028;-70
2021/01/20 12:24:41;;;;;;;2.80;1.48;;;9.50;99.90;;;;;;5078123;28;20021;-70
2021/01/20 12:27:06;;;;;;;3.78;2.05;;;9.60;99.90;;;;;;5085759;28;20366;-69
2021/01/20 12:29:32;;;;;;;5.15;2.20;;;9.60;99.90;;;;;;5071090;28;20385;-70
2021/01/20 12:31:58;;;;;;;3.35;1.95;;;9.50;99.90;;;;;;5088632;28;20058;-70
2021/01/20 12:34:23;;;;;;;9.68;2.00;;;9.50;99.90;;;;;;5090017;28;20017;-69
2021/01/20 12:36:50;;;;;;;2.65;1.40;;;9.50;99.90;;;;;;5089324;28;20024;-70
2021/01/20 12:39:16;;;;;;;4.10;1.85;;;9.50;99.90;;;;;;5087071;28;20032;-68
2021/01/20 12:41:42;;;;;;;4.78;1.70;;;9.50;99.90;;;;;;5089259;28;20073;-68
2021/01/20 12:44:08;;;;;;;4.72;1.52;;;9.50;99.90;;;;;;5074868;28;20012;-71
2021/01/20 12:46:34;;;;;;;3.47;1.75;;;9.50;99.90;;;;;;5083617;28;20088;-69
2021/01/20 12:49:00;;;;;;;2.60;1.70;;;9.50;99.90;;;;;;5089145;28;20020;-69
2021/01/20 12:51:25;;;;;;;8.45;2.30;;;9.60;99.90;;;;;;5069205;28;20040;-69
2021/01/20 12:53:51;;;;;;;5.80;2.03;;;9.60;99.90;;;;;;5089209;28;20020;-70
2021/01/20 12:56:16;;;;;;;8.35;2.25;;;9.50;99.90;;;;;;5089736;28;20108;-71
2021/01/20 12:58:42;;;;;;;3.58;1.65;;;9.60;99.90;;;;;;5070237;28;20024;-70